sensor_id;sensor_type;location;lat;lon;timestamp;P1;durP1;ratioP1;P2;durP2;ratioP2
7919;SDS011;18778;47.610;9.776;2023-08-12T00:00:15;5.63;;;5.07;;
7919;SDS011;18778;47.610;9.776;2023-08-12T00:02:42;5.37;;;4.87;;
7919;SDS011;18778;47.610;9.776;2023-08-12T00:05:08;7.20;;;4.70;;
7919;SDS011;18778;47.610;9.776;2023-08-12T00:07:38;6.77;;;5.67;;
7919;SDS011;18778;47.610;9.776;2023-08-12T00:10:06;5.57;;;5.07;;
7919;SDS011;18778;47.610;9.776;2023-08-12T00:12:34;6.17;;;5.20;;
7919;SDS011;18778;47.610;9.776;2023-08-12T00:15:00;7.63;;;5.20;;
7919;SDS011;18778;47.610;9.776;2023-08-12T00:17:26;5.83;;;5.10;;
7919;SDS011;18778;47.610;9.776;2023-08-12T00:19:52;5.83;;;5.40;;
7919;SDS011;18778;47.610;9.776;2023-08-12T00:22:17;6.20;;;5.60;;
7919;SDS011;18778;47.610;9.776;2023-08-12T00:24:43;7.27;;;5.33;;
7919;SDS011;18778;47.610;9.776;2023-08-12T00:27:10;5.53;;;5.10;;
7919;SDS011;18778;47.610;9.776;2023-08-12T00:29:35;6.83;;;5.10;;
7919;SDS011;18778;47.610;9.776;2023-08-12T00:32:01;6.40;;;5.30;;
7919;SDS011;18778;47.610;9.776;2023-08-12T00:34:27;6.10;;;4.90;;
7919;SDS011;18778;47.610;9.776;2023-08-12T00:36:53;6.70;;;4.93;;
7919;SDS011;18778;47.610;9.776;2023-08-12T00:39:19;5.67;;;5.17;;
7919;SDS011;18778;47.610;9.776;2023-08-12T00:41:44;5.30;;;4.90;;
7919;SDS011;18778;47.610;9.776;2023-08-12T00:44:13;6.20;;;5.30;;
7919;SDS011;18778;47.610;9.776;2023-08-12T00:46:39;6.33;;;4.70;;
7919;SDS011;18778;47.610;9.776;2023-08-12T00:49:06;7.83;;;5.43;;
7919;SDS011;18778;47.610;9.776;2023-08-12T00:51:33;5.47;;;5.07;;
7919;SDS011;18778;47.610;9.776;2023-08-12T00:54:00;5.37;;;4.87;;
7919;SDS011;18778;47.610;9.776;2023-08-12T00:56:29;5.87;;;5.00;;
7919;SDS011;18778;47.610;9.776;2023-08-12T00:58:56;5.30;;;4.90;;
7919;SDS011;18778;47.610;9.776;2023-08-12T01:01:23;5.10;;;4.70;;
7919;SDS011;18778;47.610;9.776;2023-08-12T01:03:49;5.83;;;4.83;;
7919;SDS011;18778;47.610;9.776;2023-08-12T01:06:15;5.00;;;4.50;;
7919;SDS011;18778;47.610;9.776;2023-08-12T01:08:41;6.80;;;4.40;;
7919;SDS011;18778;47.610;9.776;2023-08-12T01:11:29;5.40;;;4.40;;
7919;SDS011;18778;47.610;9.776;2023-08-12T01:14:06;5.53;;;4.80;;
7919;SDS011;18778;47.610;9.776;2023-08-12T01:16:43;5.07;;;4.67;;
7919;SDS011;18778;47.610;9.776;2023-08-12T01:19:22;5.20;;;4.70;;
7919;SDS011;18778;47.610;9.776;2023-08-12T01:22:00;5.20;;;4.70;;
7919;SDS011;18778;47.610;9.776;2023-08-12T01:24:27;4.60;;;4.20;;
7919;SDS011;18778;47.610;9.776;2023-08-12T01:27:00;5.90;;;4.80;;
7919;SDS011;18778;47.610;9.776;2023-08-12T01:29:26;5.57;;;4.90;;
7919;SDS011;18778;47.610;9.776;2023-08-12T01:31:54;6.10;;;5.07;;
7919;SDS011;18778;47.610;9.776;2023-08-12T01:34:33;5.13;;;4.73;;
7919;SDS011;18778;47.610;9.776;2023-08-12T01:37:14;6.17;;;4.73;;
7919;SDS011;18778;47.610;9.776;2023-08-12T01:39:48;5.00;;;4.50;;
7919;SDS011;18778;47.610;9.776;2023-08-12T01:42:14;5.20;;;4.47;;
7919;SDS011;18778;47.610;9.776;2023-08-12T01:44:43;4.80;;;4.40;;
7919;SDS011;18778;47.610;9.776;2023-08-12T01:47:09;7.23;;;5.27;;
7919;SDS011;18778;47.610;9.776;2023-08-12T01:49:34;4.73;;;4.37;;
7919;SDS011;18778;47.610;9.776;2023-08-12T01:52:00;5.20;;;4.67;;
7919;SDS011;18778;47.610;9.776;2023-08-12T01:54:26;4.60;;;4.20;;
7919;SDS011;18778;47.610;9.776;2023-08-12T01:56:51;7.23;;;4.90;;
7919;SDS011;18778;47.610;9.776;2023-08-12T01:59:17;5.43;;;4.93;;
7919;SDS011;18778;47.610;9.776;2023-08-12T02:01:42;5.73;;;5.23;;
7919;SDS011;18778;47.610;9.776;2023-08-12T02:04:08;5.10;;;4.50;;
7919;SDS011;18778;47.610;9.776;2023-08-12T02:06:33;5.17;;;4.67;;
7919;SDS011;18778;47.610;9.776;2023-08-12T02:08:59;6.40;;;4.13;;
7919;SDS011;18778;47.610;9.776;2023-08-12T02:11:24;5.17;;;4.60;;
7919;SDS011;18778;47.610;9.776;2023-08-12T02:13:50;5.17;;;4.67;;
7919;SDS011;18778;47.610;9.776;2023-08-12T02:16:16;5.07;;;4.50;;
7919;SDS011;18778;47.610;9.776;2023-08-12T02:18:42;4.63;;;4.27;;
7919;SDS011;18778;47.610;9.776;2023-08-12T02:21:08;5.03;;;4.40;;
7919;SDS011;18778;47.610;9.776;2023-08-12T02:23:33;6.30;;;4.93;;
7919;SDS011;18778;47.610;9.776;2023-08-12T02:25:59;7.13;;;5.10;;
7919;SDS011;18778;47.610;9.776;2023-08-12T02:28:25;5.20;;;4.17;;
7919;SDS011;18778;47.610;9.776;2023-08-12T02:30:51;4.50;;;4.20;;
7919;SDS011;18778;47.610;9.776;2023-08-12T02:33:16;4.77;;;4.37;;
7919;SDS011;18778;47.610;9.776;2023-08-12T02:35:42;7.37;;;4.47;;
7919;SDS011;18778;47.610;9.776;2023-08-12T02:38:07;5.17;;;4.70;;
7919;SDS011;18778;47.610;9.776;2023-08-12T02:40:33;5.10;;;4.37;;
7919;SDS011;18778;47.610;9.776;2023-08-12T02:42:59;5.23;;;4.77;;
7919;SDS011;18778;47.610;9.776;2023-08-12T02:45:24;5.00;;;4.60;;
7919;SDS011;18778;47.610;9.776;2023-08-12T02:47:50;5.70;;;4.97;;
7919;SDS011;18778;47.610;9.776;2023-08-12T02:50:16;5.20;;;4.70;;
7919;SDS011;18778;47.610;9.776;2023-08-12T02:52:41;6.93;;;4.60;;
7919;SDS011;18778;47.610;9.776;2023-08-12T02:55:07;5.77;;;5.10;;
7919;SDS011;18778;47.610;9.776;2023-08-12T02:57:33;5.53;;;5.03;;
7919;SDS011;18778;47.610;9.776;2023-08-12T02:59:59;6.53;;;5.10;;
7919;SDS011;18778;47.610;9.776;2023-08-12T03:02:24;6.90;;;4.80;;
7919;SDS011;18778;47.610;9.776;2023-08-12T03:04:50;5.13;;;4.73;;
7919;SDS011;18778;47.610;9.776;2023-08-12T03:07:15;4.90;;;4.50;;
7919;SDS011;18778;47.610;9.776;2023-08-12T03:09:41;4.70;;;4.40;;
7919;SDS011;18778;47.610;9.776;2023-08-12T03:12:07;5.90;;;5.10;;
7919;SDS011;18778;47.610;9.776;2023-08-12T03:14:32;5.93;;;5.30;;
7919;SDS011;18778;47.610;9.776;2023-08-12T03:16:58;5.80;;;5.17;;
7919;SDS011;18778;47.610;9.776;2023-08-12T03:19:24;5.23;;;4.73;;
7919;SDS011;18778;47.610;9.776;2023-08-12T03:21:49;5.70;;;5.10;;
7919;SDS011;18778;47.610;9.776;2023-08-12T03:24:15;5.03;;;4.63;;
7919;SDS011;18778;47.610;9.776;2023-08-12T03:26:41;5.93;;;5.20;;
7919;SDS011;18778;47.610;9.776;2023-08-12T03:29:06;6.63;;;5.17;;
7919;SDS011;18778;47.610;9.776;2023-08-12T03:31:32;5.20;;;4.70;;
7919;SDS011;18778;47.610;9.776;2023-08-12T03:33:57;6.63;;;5.43;;
7919;SDS011;18778;47.610;9.776;2023-08-12T03:36:23;4.90;;;4.50;;
7919;SDS011;18778;47.610;9.776;2023-08-12T03:38:49;6.43;;;5.83;;
7919;SDS011;18778;47.610;9.776;2023-08-12T03:41:14;5.90;;;5.27;;
7919;SDS011;18778;47.610;9.776;2023-08-12T03:43:40;6.03;;;5.53;;
7919;SDS011;18778;47.610;9.776;2023-08-12T03:46:05;6.30;;;5.70;;
7919;SDS011;18778;47.610;9.776;2023-08-12T03:48:31;5.57;;;5.03;;
7919;SDS011;18778;47.610;9.776;2023-08-12T03:50:57;6.00;;;4.63;;
7919;SDS011;18778;47.610;9.776;2023-08-12T03:53:22;5.07;;;4.60;;
7919;SDS011;18778;47.610;9.776;2023-08-12T03:55:48;5.03;;;4.63;;
7919;SDS011;18778;47.610;9.776;2023-08-12T03:58:13;5.67;;;5.27;;
7919;SDS011;18778;47.610;9.776;2023-08-12T04:00:42;5.63;;;5.03;;
7919;SDS011;18778;47.610;9.776;2023-08-12T04:03:08;5.87;;;5.37;;
7919;SDS011;18778;47.610;9.776;2023-08-12T04:05:34;5.37;;;4.90;;
7919;SDS011;18778;47.610;9.776;2023-08-12T04:07:59;5.90;;;5.37;;
7919;SDS011;18778;47.610;9.776;2023-08-12T04:10:25;5.00;;;4.50;;
7919;SDS011;18778;47.610;9.776;2023-08-12T04:12:51;5.20;;;4.47;;
7919;SDS011;18778;47.610;9.776;2023-08-12T04:15:16;5.40;;;4.90;;
7919;SDS011;18778;47.610;9.776;2023-08-12T04:17:42;5.07;;;4.67;;
7919;SDS011;18778;47.610;9.776;2023-08-12T04:20:08;5.80;;;4.97;;
7919;SDS011;18778;47.610;9.776;2023-08-12T04:22:34;5.53;;;4.33;;
7919;SDS011;18778;47.610;9.776;2023-08-12T04:24:59;4.97;;;4.57;;
7919;SDS011;18778;47.610;9.776;2023-08-12T04:27:25;4.77;;;4.37;;
7919;SDS011;18778;47.610;9.776;2023-08-12T04:29:51;5.07;;;4.67;;
7919;SDS011;18778;47.610;9.776;2023-08-12T04:32:17;5.80;;;5.10;;
7919;SDS011;18778;47.610;9.776;2023-08-12T04:34:44;5.70;;;4.77;;
7919;SDS011;18778;47.610;9.776;2023-08-12T04:37:11;4.50;;;4.20;;
7919;SDS011;18778;47.610;9.776;2023-08-12T04:39:36;5.33;;;4.87;;
7919;SDS011;18778;47.610;9.776;2023-08-12T04:42:02;5.17;;;4.77;;
7919;SDS011;18778;47.610;9.776;2023-08-12T04:44:28;5.60;;;4.70;;
7919;SDS011;18778;47.610;9.776;2023-08-12T04:46:54;7.30;;;4.93;;
7919;SDS011;18778;47.610;9.776;2023-08-12T04:49:20;5.80;;;4.70;;
7919;SDS011;18778;47.610;9.776;2023-08-12T04:51:46;5.60;;;5.00;;
7919;SDS011;18778;47.610;9.776;2023-08-12T04:54:12;4.80;;;4.50;;
7919;SDS011;18778;47.610;9.776;2023-08-12T04:56:37;5.90;;;4.90;;
7919;SDS011;18778;47.610;9.776;2023-08-12T04:59:03;5.20;;;4.80;;
7919;SDS011;18778;47.610;9.776;2023-08-12T05:01:29;5.20;;;4.80;;
7919;SDS011;18778;47.610;9.776;2023-08-12T05:03:54;5.40;;;4.90;;
7919;SDS011;18778;47.610;9.776;2023-08-12T05:06:20;5.10;;;4.67;;
7919;SDS011;18778;47.610;9.776;2023-08-12T05:08:45;4.90;;;4.43;;
7919;SDS011;18778;47.610;9.776;2023-08-12T05:11:11;4.97;;;4.60;;
7919;SDS011;18778;47.610;9.776;2023-08-12T05:13:37;5.87;;;4.77;;
7919;SDS011;18778;47.610;9.776;2023-08-12T05:16:02;5.90;;;4.87;;
7919;SDS011;18778;47.610;9.776;2023-08-12T05:18:28;5.07;;;4.67;;
7919;SDS011;18778;47.610;9.776;2023-08-12T05:20:54;5.83;;;5.13;;
7919;SDS011;18778;47.610;9.776;2023-08-12T05:23:20;4.77;;;4.33;;
7919;SDS011;18778;47.610;9.776;2023-08-12T05:25:46;5.00;;;4.53;;
7919;SDS011;18778;47.610;9.776;2023-08-12T05:28:11;4.67;;;4.27;;
7919;SDS011;18778;47.610;9.776;2023-08-12T05:30:37;5.40;;;4.47;;
7919;SDS011;18778;47.610;9.776;2023-08-12T05:33:03;4.73;;;4.33;;
7919;SDS011;18778;47.610;9.776;2023-08-12T05:35:33;4.80;;;4.50;;
7919;SDS011;18778;47.610;9.776;2023-08-12T05:37:59;4.63;;;4.23;;
7919;SDS011;18778;47.610;9.776;2023-08-12T05:40:24;4.60;;;4.20;;
7919;SDS011;18778;47.610;9.776;2023-08-12T05:42:50;4.90;;;4.40;;
7919;SDS011;18778;47.610;9.776;2023-08-12T05:45:16;7.10;;;4.23;;
7919;SDS011;18778;47.610;9.776;2023-08-12T05:47:42;4.40;;;4.00;;
7919;SDS011;18778;47.610;9.776;2023-08-12T05:50:08;5.43;;;3.97;;
7919;SDS011;18778;47.610;9.776;2023-08-12T05:52:33;4.30;;;3.90;;
7919;SDS011;18778;47.610;9.776;2023-08-12T05:54:59;4.83;;;4.43;;
7919;SDS011;18778;47.610;9.776;2023-08-12T05:57:25;5.33;;;4.37;;
7919;SDS011;18778;47.610;9.776;2023-08-12T05:59:51;4.53;;;4.23;;
7919;SDS011;18778;47.610;9.776;2023-08-12T06:02:26;4.60;;;4.20;;
7919;SDS011;18778;47.610;9.776;2023-08-12T06:04:55;5.47;;;3.97;;
7919;SDS011;18778;47.610;9.776;2023-08-12T06:07:21;6.77;;;4.00;;
7919;SDS011;18778;47.610;9.776;2023-08-12T06:09:48;5.83;;;4.10;;
7919;SDS011;18778;47.610;9.776;2023-08-12T06:12:14;4.80;;;4.17;;
7919;SDS011;18778;47.610;9.776;2023-08-12T06:18:26;4.67;;;4.10;;
7919;SDS011;18778;47.610;9.776;2023-08-12T06:20:52;4.30;;;3.87;;
7919;SDS011;18778;47.610;9.776;2023-08-12T06:23:17;4.43;;;4.03;;
7919;SDS011;18778;47.610;9.776;2023-08-12T06:25:43;4.50;;;4.10;;
7919;SDS011;18778;47.610;9.776;2023-08-12T06:28:09;4.33;;;4.03;;
7919;SDS011;18778;47.610;9.776;2023-08-12T06:30:35;4.10;;;3.80;;
7919;SDS011;18778;47.610;9.776;2023-08-12T06:33:09;4.53;;;3.93;;
7919;SDS011;18778;47.610;9.776;2023-08-12T06:35:37;4.17;;;3.50;;
7919;SDS011;18778;47.610;9.776;2023-08-12T06:38:04;4.47;;;4.07;;
7919;SDS011;18778;47.610;9.776;2023-08-12T06:40:30;5.30;;;4.00;;
7919;SDS011;18778;47.610;9.776;2023-08-12T06:42:56;7.00;;;3.67;;
7919;SDS011;18778;47.610;9.776;2023-08-12T06:45:21;4.30;;;3.77;;
7919;SDS011;18778;47.610;9.776;2023-08-12T06:47:47;4.27;;;3.77;;
7919;SDS011;18778;47.610;9.776;2023-08-12T06:50:13;4.30;;;3.90;;
7919;SDS011;18778;47.610;9.776;2023-08-12T06:52:38;4.10;;;3.80;;
7919;SDS011;18778;47.610;9.776;2023-08-12T06:55:04;4.10;;;3.80;;
7919;SDS011;18778;47.610;9.776;2023-08-12T06:57:30;3.93;;;3.60;;
7919;SDS011;18778;47.610;9.776;2023-08-12T06:59:56;4.10;;;3.63;;
7919;SDS011;18778;47.610;9.776;2023-08-12T07:02:21;5.43;;;3.50;;
7919;SDS011;18778;47.610;9.776;2023-08-12T07:04:47;3.93;;;3.63;;
7919;SDS011;18778;47.610;9.776;2023-08-12T07:07:13;4.30;;;3.57;;
7919;SDS011;18778;47.610;9.776;2023-08-12T07:09:38;4.47;;;3.40;;
7919;SDS011;18778;47.610;9.776;2023-08-12T07:12:04;5.50;;;4.40;;
7919;SDS011;18778;47.610;9.776;2023-08-12T07:14:30;3.80;;;3.20;;
7919;SDS011;18778;47.610;9.776;2023-08-12T07:16:56;3.60;;;3.30;;
7919;SDS011;18778;47.610;9.776;2023-08-12T07:19:22;3.80;;;3.37;;
7919;SDS011;18778;47.610;9.776;2023-08-12T07:21:47;3.77;;;3.47;;
7919;SDS011;18778;47.610;9.776;2023-08-12T07:24:13;3.20;;;3.00;;
7919;SDS011;18778;47.610;9.776;2023-08-12T07:26:38;3.20;;;3.00;;
7919;SDS011;18778;47.610;9.776;2023-08-12T07:29:04;7.93;;;3.43;;
7919;SDS011;18778;47.610;9.776;2023-08-12T07:31:30;4.60;;;3.00;;
7919;SDS011;18778;47.610;9.776;2023-08-12T07:33:55;4.53;;;3.17;;
7919;SDS011;18778;47.610;9.776;2023-08-12T07:36:21;4.00;;;3.27;;
7919;SDS011;18778;47.610;9.776;2023-08-12T07:38:47;3.63;;;3.30;;
7919;SDS011;18778;47.610;9.776;2023-08-12T07:41:12;3.43;;;3.10;;
7919;SDS011;18778;47.610;9.776;2023-08-12T07:43:38;3.17;;;2.87;;
7919;SDS011;18778;47.610;9.776;2023-08-12T07:46:04;3.80;;;3.10;;
7919;SDS011;18778;47.610;9.776;2023-08-12T07:48:29;3.40;;;3.17;;
7919;SDS011;18778;47.610;9.776;2023-08-12T07:50:58;3.43;;;3.07;;
7919;SDS011;18778;47.610;9.776;2023-08-12T07:53:25;3.50;;;3.23;;
7919;SDS011;18778;47.610;9.776;2023-08-12T07:55:51;3.87;;;3.10;;
7919;SDS011;18778;47.610;9.776;2023-08-12T07:58:17;3.40;;;3.10;;
7919;SDS011;18778;47.610;9.776;2023-08-12T08:00:43;2.97;;;2.77;;
7919;SDS011;18778;47.610;9.776;2023-08-12T08:03:08;3.53;;;2.97;;
7919;SDS011;18778;47.610;9.776;2023-08-12T08:05:34;3.40;;;2.93;;
7919;SDS011;18778;47.610;9.776;2023-08-12T08:08:00;3.43;;;3.00;;
7919;SDS011;18778;47.610;9.776;2023-08-12T08:10:25;3.20;;;3.00;;
7919;SDS011;18778;47.610;9.776;2023-08-12T08:12:51;3.27;;;3.07;;
7919;SDS011;18778;47.610;9.776;2023-08-12T08:15:16;5.80;;;3.03;;
7919;SDS011;18778;47.610;9.776;2023-08-12T08:17:42;3.43;;;3.13;;
7919;SDS011;18778;47.610;9.776;2023-08-12T08:20:08;4.17;;;3.50;;
7919;SDS011;18778;47.610;9.776;2023-08-12T08:22:35;3.50;;;3.20;;
7919;SDS011;18778;47.610;9.776;2023-08-12T08:25:01;3.47;;;3.17;;
7919;SDS011;18778;47.610;9.776;2023-08-12T08:27:26;7.03;;;3.53;;
7919;SDS011;18778;47.610;9.776;2023-08-12T08:29:52;4.83;;;3.40;;
7919;SDS011;18778;47.610;9.776;2023-08-12T08:32:18;4.37;;;3.53;;
7919;SDS011;18778;47.610;9.776;2023-08-12T08:34:43;3.70;;;3.33;;
7919;SDS011;18778;47.610;9.776;2023-08-12T08:37:09;3.57;;;3.27;;
7919;SDS011;18778;47.610;9.776;2023-08-12T08:39:35;3.70;;;3.20;;
7919;SDS011;18778;47.610;9.776;2023-08-12T08:42:00;5.20;;;3.57;;
7919;SDS011;18778;47.610;9.776;2023-08-12T08:44:28;4.80;;;3.47;;
7919;SDS011;18778;47.610;9.776;2023-08-12T08:46:56;4.00;;;3.40;;
7919;SDS011;18778;47.610;9.776;2023-08-12T08:49:24;4.37;;;3.20;;
7919;SDS011;18778;47.610;9.776;2023-08-12T08:51:50;6.63;;;3.80;;
7919;SDS011;18778;47.610;9.776;2023-08-12T08:54:17;4.10;;;3.67;;
7919;SDS011;18778;47.610;9.776;2023-08-12T08:56:44;5.33;;;3.80;;
7919;SDS011;18778;47.610;9.776;2023-08-12T08:59:10;4.80;;;3.63;;
7919;SDS011;18778;47.610;9.776;2023-08-12T09:01:36;5.60;;;3.70;;
7919;SDS011;18778;47.610;9.776;2023-08-12T09:04:02;4.93;;;3.70;;
7919;SDS011;18778;47.610;9.776;2023-08-12T09:06:29;3.33;;;2.97;;
7919;SDS011;18778;47.610;9.776;2023-08-12T09:08:55;4.87;;;3.53;;
7919;SDS011;18778;47.610;9.776;2023-08-12T09:11:21;3.90;;;3.43;;
7919;SDS011;18778;47.610;9.776;2023-08-12T09:13:48;6.83;;;3.63;;
7919;SDS011;18778;47.610;9.776;2023-08-12T09:16:14;4.07;;;3.70;;
7919;SDS011;18778;47.610;9.776;2023-08-12T09:18:40;4.93;;;3.50;;
7919;SDS011;18778;47.610;9.776;2023-08-12T09:21:08;5.93;;;3.33;;
7919;SDS011;18778;47.610;9.776;2023-08-12T09:23:38;3.97;;;3.30;;
7919;SDS011;18778;47.610;9.776;2023-08-12T09:26:19;6.53;;;3.97;;
7919;SDS011;18778;47.610;9.776;2023-08-12T09:28:46;5.07;;;3.47;;
7919;SDS011;18778;47.610;9.776;2023-08-12T09:31:22;3.70;;;3.40;;
7919;SDS011;18778;47.610;9.776;2023-08-12T09:33:48;6.27;;;3.23;;
7919;SDS011;18778;47.610;9.776;2023-08-12T09:36:15;4.43;;;3.30;;
7919;SDS011;18778;47.610;9.776;2023-08-12T09:38:40;3.73;;;3.43;;
7919;SDS011;18778;47.610;9.776;2023-08-12T09:41:06;5.20;;;3.30;;
7919;SDS011;18778;47.610;9.776;2023-08-12T09:43:32;7.37;;;3.73;;
7919;SDS011;18778;47.610;9.776;2023-08-12T09:45:57;5.45;;;3.13;;
7919;SDS011;18778;47.610;9.776;2023-08-12T09:48:26;3.60;;;3.30;;
7919;SDS011;18778;47.610;9.776;2023-08-12T09:50:52;3.53;;;3.22;;
7919;SDS011;18778;47.610;9.776;2023-08-12T09:53:18;4.10;;;3.42;;
7919;SDS011;18778;47.610;9.776;2023-08-12T09:55:45;3.63;;;3.33;;
7919;SDS011;18778;47.610;9.776;2023-08-12T09:58:13;5.00;;;3.42;;
7919;SDS011;18778;47.610;9.776;2023-08-12T10:00:42;6.13;;;3.42;;
7919;SDS011;18778;47.610;9.776;2023-08-12T10:03:10;4.20;;;3.25;;
7919;SDS011;18778;47.610;9.776;2023-08-12T10:05:39;3.90;;;3.50;;
7919;SDS011;18778;47.610;9.776;2023-08-12T10:08:05;5.57;;;3.60;;
7919;SDS011;18778;47.610;9.776;2023-08-12T10:10:33;3.90;;;3.60;;
7919;SDS011;18778;47.610;9.776;2023-08-12T10:13:00;3.88;;;3.25;;
7919;SDS011;18778;47.610;9.776;2023-08-12T10:15:26;3.70;;;3.40;;
7919;SDS011;18778;47.610;9.776;2023-08-12T10:17:52;3.72;;;3.42;;
7919;SDS011;18778;47.610;9.776;2023-08-12T10:20:22;5.50;;;3.33;;
7919;SDS011;18778;47.610;9.776;2023-08-12T10:22:49;5.53;;;3.50;;
7919;SDS011;18778;47.610;9.776;2023-08-12T10:25:15;4.50;;;3.63;;
7919;SDS011;18778;47.610;9.776;2023-08-12T10:27:43;4.22;;;3.30;;
7919;SDS011;18778;47.610;9.776;2023-08-12T10:30:09;4.57;;;3.67;;
7919;SDS011;18778;47.610;9.776;2023-08-12T10:32:37;4.13;;;3.63;;
7919;SDS011;18778;47.610;9.776;2023-08-12T10:35:04;4.45;;;3.55;;
7919;SDS011;18778;47.610;9.776;2023-08-12T10:37:32;5.60;;;3.72;;
7919;SDS011;18778;47.610;9.776;2023-08-12T10:39:59;3.95;;;3.65;;
7919;SDS011;18778;47.610;9.776;2023-08-12T10:42:41;5.32;;;3.30;;
7919;SDS011;18778;47.610;9.776;2023-08-12T10:45:09;6.90;;;3.80;;
7919;SDS011;18778;47.610;9.776;2023-08-12T10:47:39;4.20;;;3.88;;
7919;SDS011;18778;47.610;9.776;2023-08-12T10:50:19;4.13;;;3.72;;
7919;SDS011;18778;47.610;9.776;2023-08-12T10:52:46;5.00;;;3.95;;
7919;SDS011;18778;47.610;9.776;2023-08-12T10:55:22;5.03;;;3.72;;
7919;SDS011;18778;47.610;9.776;2023-08-12T10:57:49;4.97;;;3.67;;
7919;SDS011;18778;47.610;9.776;2023-08-12T11:00:17;5.00;;;4.47;;
7919;SDS011;18778;47.610;9.776;2023-08-12T11:02:44;3.97;;;3.58;;
7919;SDS011;18778;47.610;9.776;2023-08-12T11:05:11;8.88;;;3.75;;
7919;SDS011;18778;47.610;9.776;2023-08-12T11:07:47;4.22;;;3.88;;
7919;SDS011;18778;47.610;9.776;2023-08-12T11:10:18;6.90;;;4.13;;
7919;SDS011;18778;47.610;9.776;2023-08-12T11:15:34;3.83;;;3.53;;
7919;SDS011;18778;47.610;9.776;2023-08-12T11:18:03;3.70;;;3.40;;
7919;SDS011;18778;47.610;9.776;2023-08-12T11:20:30;4.68;;;3.55;;
7919;SDS011;18778;47.610;9.776;2023-08-12T11:22:56;4.03;;;3.70;;
7919;SDS011;18778;47.610;9.776;2023-08-12T11:25:25;4.13;;;3.70;;
7919;SDS011;18778;47.610;9.776;2023-08-12T11:27:52;5.10;;;3.70;;
7919;SDS011;18778;47.610;9.776;2023-08-12T11:30:18;3.85;;;3.38;;
7919;SDS011;18778;47.610;9.776;2023-08-12T11:32:46;3.90;;;3.60;;
7919;SDS011;18778;47.610;9.776;2023-08-12T11:35:14;4.13;;;3.72;;
7919;SDS011;18778;47.610;9.776;2023-08-12T11:37:41;4.28;;;3.88;;
7919;SDS011;18778;47.610;9.776;2023-08-12T11:40:09;7.75;;;4.20;;
7919;SDS011;18778;47.610;9.776;2023-08-12T11:42:39;6.25;;;4.22;;
7919;SDS011;18778;47.610;9.776;2023-08-12T11:45:06;5.00;;;4.50;;
7919;SDS011;18778;47.610;9.776;2023-08-12T11:47:33;5.25;;;4.32;;
7919;SDS011;18778;47.610;9.776;2023-08-12T11:50:01;4.82;;;4.32;;
7919;SDS011;18778;47.610;9.776;2023-08-12T11:52:31;5.97;;;4.63;;
7919;SDS011;18778;47.610;9.776;2023-08-12T11:54:57;4.70;;;4.30;;
7919;SDS011;18778;47.610;9.776;2023-08-12T11:57:23;4.90;;;4.40;;
7919;SDS011;18778;47.610;9.776;2023-08-12T11:59:49;4.80;;;4.27;;
7919;SDS011;18778;47.610;9.776;2023-08-12T12:02:15;8.40;;;4.95;;
7919;SDS011;18778;47.610;9.776;2023-08-12T12:04:43;5.83;;;4.77;;
7919;SDS011;18778;47.610;9.776;2023-08-12T12:07:22;5.10;;;4.70;;
7919;SDS011;18778;47.610;9.776;2023-08-12T12:09:53;5.00;;;4.50;;
7919;SDS011;18778;47.610;9.776;2023-08-12T12:12:22;4.70;;;4.30;;
7919;SDS011;18778;47.610;9.776;2023-08-12T12:14:52;5.67;;;4.40;;
7919;SDS011;18778;47.610;9.776;2023-08-12T12:17:22;4.97;;;4.57;;
7919;SDS011;18778;47.610;9.776;2023-08-12T12:19:52;5.17;;;4.53;;
7919;SDS011;18778;47.610;9.776;2023-08-12T12:22:19;5.27;;;4.80;;
7919;SDS011;18778;47.610;9.776;2023-08-12T12:24:45;6.67;;;5.17;;
7919;SDS011;18778;47.610;9.776;2023-08-12T12:27:12;5.53;;;5.03;;
7919;SDS011;18778;47.610;9.776;2023-08-12T12:29:38;6.13;;;4.80;;
7919;SDS011;18778;47.610;9.776;2023-08-12T12:32:04;6.10;;;4.30;;
7919;SDS011;18778;47.610;9.776;2023-08-12T12:34:29;4.33;;;3.93;;
7919;SDS011;18778;47.610;9.776;2023-08-12T12:36:55;7.17;;;3.97;;
7919;SDS011;18778;47.610;9.776;2023-08-12T12:39:20;5.10;;;3.70;;
7919;SDS011;18778;47.610;9.776;2023-08-12T12:41:48;4.00;;;3.58;;
7919;SDS011;18778;47.610;9.776;2023-08-12T12:44:13;3.40;;;3.10;;
7919;SDS011;18778;47.610;9.776;2023-08-12T12:46:39;4.90;;;3.20;;
7919;SDS011;18778;47.610;9.776;2023-08-12T12:49:05;2.90;;;2.70;;
7919;SDS011;18778;47.610;9.776;2023-08-12T12:51:30;4.20;;;2.97;;
7919;SDS011;18778;47.610;9.776;2023-08-12T12:53:56;7.82;;;3.15;;
7919;SDS011;18778;47.610;9.776;2023-08-12T12:56:22;3.00;;;2.75;;
7919;SDS011;18778;47.610;9.776;2023-08-12T12:58:47;3.33;;;3.03;;
7919;SDS011;18778;47.610;9.776;2023-08-12T13:01:13;3.28;;;2.85;;
7919;SDS011;18778;47.610;9.776;2023-08-12T13:03:39;3.30;;;3.00;;
7919;SDS011;18778;47.610;9.776;2023-08-12T13:06:04;5.05;;;3.00;;
7919;SDS011;18778;47.610;9.776;2023-08-12T13:08:30;3.88;;;3.20;;
7919;SDS011;18778;47.610;9.776;2023-08-12T13:10:56;3.33;;;3.03;;
7919;SDS011;18778;47.610;9.776;2023-08-12T13:13:22;2.88;;;2.67;;
7919;SDS011;18778;47.610;9.776;2023-08-12T13:15:48;4.50;;;2.65;;
7919;SDS011;18778;47.610;9.776;2023-08-12T13:18:14;5.07;;;2.45;;
7919;SDS011;18778;47.610;9.776;2023-08-12T13:20:39;2.85;;;2.65;;
7919;SDS011;18778;47.610;9.776;2023-08-12T13:23:05;3.35;;;2.70;;
7919;SDS011;18778;47.610;9.776;2023-08-12T13:25:31;3.63;;;2.50;;
7919;SDS011;18778;47.610;9.776;2023-08-12T13:28:02;3.22;;;2.67;;
7919;SDS011;18778;47.610;9.776;2023-08-12T13:30:28;3.25;;;2.85;;
7919;SDS011;18778;47.610;9.776;2023-08-12T13:32:55;4.35;;;3.10;;
7919;SDS011;18778;47.610;9.776;2023-08-12T13:35:21;2.97;;;2.67;;
7919;SDS011;18778;47.610;9.776;2023-08-12T13:37:49;5.72;;;3.00;;
7919;SDS011;18778;47.610;9.776;2023-08-12T13:40:16;3.83;;;2.60;;
7919;SDS011;18778;47.610;9.776;2023-08-12T13:42:41;3.70;;;2.85;;
7919;SDS011;18778;47.610;9.776;2023-08-12T13:45:07;3.30;;;2.95;;
7919;SDS011;18778;47.610;9.776;2023-08-12T13:47:35;2.97;;;2.67;;
7919;SDS011;18778;47.610;9.776;2023-08-12T13:50:00;3.78;;;2.90;;
7919;SDS011;18778;47.610;9.776;2023-08-12T13:52:26;2.45;;;2.25;;
7919;SDS011;18778;47.610;9.776;2023-08-12T13:54:51;3.20;;;3.00;;
7919;SDS011;18778;47.610;9.776;2023-08-12T13:57:17;3.13;;;2.63;;
7919;SDS011;18778;47.610;9.776;2023-08-12T13:59:42;3.75;;;3.10;;
7919;SDS011;18778;47.610;9.776;2023-08-12T14:02:09;5.00;;;2.90;;
7919;SDS011;18778;47.610;9.776;2023-08-12T14:04:38;3.20;;;2.90;;
7919;SDS011;18778;47.610;9.776;2023-08-12T14:07:04;6.15;;;2.92;;
7919;SDS011;18778;47.610;9.776;2023-08-12T14:09:30;4.80;;;3.03;;
7919;SDS011;18778;47.610;9.776;2023-08-12T14:11:56;3.10;;;2.80;;
7919;SDS011;18778;47.610;9.776;2023-08-12T14:14:22;5.13;;;2.83;;
7919;SDS011;18778;47.610;9.776;2023-08-12T14:16:50;5.00;;;2.90;;
7919;SDS011;18778;47.610;9.776;2023-08-12T14:19:15;9.52;;;2.97;;
7919;SDS011;18778;47.610;9.776;2023-08-12T14:21:42;3.05;;;2.80;;
7919;SDS011;18778;47.610;9.776;2023-08-12T14:24:08;3.00;;;2.70;;
7919;SDS011;18778;47.610;9.776;2023-08-12T14:26:33;2.80;;;2.60;;
7919;SDS011;18778;47.610;9.776;2023-08-12T14:28:59;4.88;;;3.08;;
7919;SDS011;18778;47.610;9.776;2023-08-12T14:31:25;3.55;;;2.63;;
7919;SDS011;18778;47.610;9.776;2023-08-12T14:33:51;2.85;;;2.50;;
7919;SDS011;18778;47.610;9.776;2023-08-12T14:36:17;2.88;;;2.63;;
7919;SDS011;18778;47.610;9.776;2023-08-12T14:38:43;3.38;;;2.45;;
7919;SDS011;18778;47.610;9.776;2023-08-12T14:41:09;5.03;;;2.78;;
7919;SDS011;18778;47.610;9.776;2023-08-12T14:43:34;3.38;;;2.67;;
7919;SDS011;18778;47.610;9.776;2023-08-12T14:46:01;4.78;;;2.58;;
7919;SDS011;18778;47.610;9.776;2023-08-12T14:48:27;2.80;;;2.60;;
7919;SDS011;18778;47.610;9.776;2023-08-12T14:50:53;3.97;;;2.80;;
7919;SDS011;18778;47.610;9.776;2023-08-12T14:53:19;2.60;;;2.40;;
7919;SDS011;18778;47.610;9.776;2023-08-12T14:55:45;3.03;;;2.20;;
7919;SDS011;18778;47.610;9.776;2023-08-12T14:58:11;2.72;;;2.45;;
7919;SDS011;18778;47.610;9.776;2023-08-12T15:00:36;2.50;;;2.30;;
7919;SDS011;18778;47.610;9.776;2023-08-12T15:03:02;2.80;;;2.50;;